Time;durP1;ratioP1;P1;durP2;ratioP2;P2;SDS_P1;SDS_P2;PMS_P1;PMS_P2;Temp;Humidity;BMP_temperature;BMP_pressure;BME280_temperature;BME280_humidity;BME280_pressure;Samples;Min_cycle;Max_cycle;Signal;HPM_P1;HPM_P2
2022/08/03 00:01:31;;;;;;;2.72;1.75;;;20.10;84.70;;;;;;5058696;28;20082;-81
2022/08/03 00:03:56;;;;;;;1.17;0.98;;;20.00;85.00;;;;;;5059078;28;20121;-79
2022/08/03 00:06:22;;;;;;;1.40;1.30;;;20.00;85.20;;;;;;5058902;28;20104;-79
2022/08/03 00:08:48;;;;;;;3.13;1.27;;;19.90;85.40;;;;;;5058112;28;20029;-81
2022/08/03 00:11:14;;;;;;;1.30;1.17;;;19.80;85.80;;;;;;5058456;28;20025;-79
2022/08/03 00:13:40;;;;;;;1.67;1.20;;;19.80;86.40;;;;;;5057920;28;20074;-80
2022/08/03 00:16:05;;;;;;;1.60;1.50;;;19.70;86.60;;;;;;5057076;28;20034;-80
2022/08/03 00:18:31;;;;;;;1.70;0.98;;;19.70;87.00;;;;;;5056195;28;20025;-80
2022/08/03 00:20:57;;;;;;;1.10;1.10;;;19.70;87.40;;;;;;5058681;28;20027;-80
2022/08/03 00:23:22;;;;;;;1.08;1.00;;;19.60;87.80;;;;;;5065104;28;20025;-80
2022/08/03 00:25:48;;;;;;;3.08;1.20;;;19.60;88.10;;;;;;5061312;28;20195;-78
2022/08/03 00:28:14;;;;;;;1.40;1.30;;;19.60;88.30;;;;;;5060705;28;20040;-79
2022/08/03 00:30:39;;;;;;;1.42;1.33;;;19.70;88.40;;;;;;5067648;28;20041;-80
2022/08/03 00:33:05;;;;;;;1.33;1.10;;;19.60;88.20;;;;;;5071503;28;20033;-78
2022/08/03 00:35:30;;;;;;;2.47;1.13;;;19.60;88.20;;;;;;5071772;28;20044;-78
2022/08/03 00:37:56;;;;;;;1.20;1.10;;;19.60;88.60;;;;;;5075510;28;20033;-78
2022/08/03 00:40:22;;;;;;;0.98;0.98;;;19.50;88.40;;;;;;5074928;28;20040;-79
2022/08/03 00:42:56;;;;;;;1.17;1.13;;;19.50;88.40;;;;;;5078134;28;20037;-77
2022/08/03 00:45:32;;;;;;;2.03;1.20;;;19.50;88.40;;;;;;5078449;28;20054;-77
2022/08/03 00:47:59;;;;;;;1.20;1.20;;;19.60;88.50;;;;;;5093460;28;20045;-78
2022/08/03 00:50:27;;;;;;;1.15;1.15;;;19.50;88.20;;;;;;5075937;28;20039;-79
2022/08/03 00:52:55;;;;;;;1.20;1.10;;;19.50;88.30;;;;;;5074072;28;20107;-78
2022/08/03 00:55:21;;;;;;;1.83;1.10;;;19.50;88.10;;;;;;5073033;28;20025;-77
2022/08/03 00:57:47;;;;;;;1.10;1.10;;;19.50;88.10;;;;;;5074091;28;20040;-77
2022/08/03 01:00:17;;;;;;;2.00;1.35;;;19.50;88.10;;;;;;5069246;28;20734;-78
2022/08/03 01:02:43;;;;;;;0.80;0.80;;;19.40;88.20;;;;;;5072706;28;20037;-79
2022/08/03 01:05:09;;;;;;;1.00;1.00;;;19.40;88.40;;;;;;5073483;28;20029;-78
2022/08/03 01:07:50;;;;;;;1.10;1.00;;;19.40;88.50;;;;;;5068869;28;20440;-80
2022/08/03 01:10:28;;;;;;;1.02;1.00;;;19.30;88.60;;;;;;5059679;28;20036;-78
2022/08/03 01:13:04;;;;;;;0.90;0.90;;;19.30;88.70;;;;;;5052841;28;20017;-79
2022/08/03 01:15:39;;;;;;;0.80;0.80;;;19.30;88.90;;;;;;5040767;28;20030;-80
2022/08/03 01:18:32;;;;;;;1.08;1.08;;;19.30;89.10;;;;;;5044132;28;20024;-81
2022/08/03 01:20:59;;;;;;;;;;;19.20;89.10;;;;;;5056982;28;20037;-81
2022/08/03 01:23:40;;;;;;;1.80;1.20;;;19.20;89.40;;;;;;5059758;28;19916;-80
2022/08/03 01:26:29;;;;;;;1.50;1.40;;;19.10;89.80;;;;;;5059264;28;20084;-81
2022/08/03 01:29:12;;;;;;;1.27;1.17;;;19.10;90.20;;;;;;5059196;28;20461;-80
2022/08/03 01:31:43;;;;;;;0.80;0.80;;;19.00;90.20;;;;;;5060018;28;20033;-80
2022/08/03 01:34:13;;;;;;;1.30;0.95;;;19.00;90.10;;;;;;5059726;28;20080;-81
2022/08/03 01:36:47;;;;;;;1.15;1.05;;;19.00;90.10;;;;;;5063795;28;20025;-78
2022/08/03 01:39:16;;;;;;;1.13;1.00;;;19.00;90.10;;;;;;5074776;28;20032;-79
2022/08/03 01:41:47;;;;;;;1.23;1.13;;;18.90;90.30;;;;;;5074551;28;20083;-79
2022/08/03 01:44:14;;;;;;;1.00;1.00;;;18.90;90.50;;;;;;5063165;28;20031;-80
2022/08/03 01:46:41;;;;;;;1.30;1.05;;;18.90;90.70;;;;;;5059758;28;20032;-81
2022/08/03 01:49:11;;;;;;;0.90;0.90;;;18.90;90.70;;;;;;5059701;28;20025;-81
2022/08/03 01:51:40;;;;;;;0.80;0.80;;;18.80;90.70;;;;;;5059103;28;20516;-80
2022/08/03 01:54:08;;;;;;;2.50;1.20;;;18.80;90.70;;;;;;5072927;28;20032;-81
2022/08/03 01:56:36;;;;;;;0.82;0.82;;;18.80;90.70;;;;;;5061544;28;20029;-81
2022/08/03 01:59:04;;;;;;;1.27;1.17;;;18.80;90.80;;;;;;5059437;28;20104;-81
2022/08/03 02:01:30;;;;;;;1.15;1.05;;;18.80;90.80;;;;;;5059616;28;20461;-81
2022/08/03 02:03:59;;;;;;;1.00;1.00;;;18.80;90.90;;;;;;5059506;28;20049;-81
2022/08/03 02:06:26;;;;;;;0.95;0.85;;;18.70;91.10;;;;;;5059232;28;20025;-80
2022/08/03 02:08:54;;;;;;;1.00;1.00;;;18.70;91.10;;;;;;5058990;28;20374;-81
2022/08/03 02:11:20;;;;;;;1.25;1.15;;;18.60;91.30;;;;;;5059707;28;20047;-81
2022/08/03 02:13:47;;;;;;;1.70;0.82;;;18.60;91.30;;;;;;5074527;28;20117;-78
2022/08/03 02:16:13;;;;;;;1.35;0.90;;;18.50;91.50;;;;;;5077002;28;20040;-78
2022/08/03 02:18:40;;;;;;;1.10;1.00;;;18.50;91.70;;;;;;5076682;28;20042;-78
2022/08/03 02:21:09;;;;;;;0.80;0.80;;;18.50;91.70;;;;;;5075716;28;20033;-78
2022/08/03 02:23:35;;;;;;;2.90;1.40;;;18.50;91.80;;;;;;5076441;28;20019;-77
2022/08/03 02:26:04;;;;;;;1.00;1.00;;;18.50;91.80;;;;;;5076402;28;20032;-78
2022/08/03 02:28:34;;;;;;;1.10;1.00;;;18.40;91.70;;;;;;5076632;28;20028;-78
2022/08/03 02:31:06;;;;;;;1.40;1.10;;;18.40;91.70;;;;;;5076195;28;20017;-77
2022/08/03 02:33:37;;;;;;;0.95;0.90;;;18.40;91.80;;;;;;5072280;28;20096;-77
2022/08/03 02:36:04;;;;;;;0.90;0.90;;;18.40;91.90;;;;;;5073382;28;20072;-78
2022/08/03 02:38:36;;;;;;;1.10;1.00;;;18.40;91.80;;;;;;5073078;28;20039;-79
2022/08/03 02:41:06;;;;;;;1.17;0.80;;;18.40;91.80;;;;;;5073484;28;20013;-79
2022/08/03 02:43:36;;;;;;;1.00;1.00;;;18.40;91.90;;;;;;5072996;28;20021;-79
2022/08/03 02:46:02;;;;;;;1.30;1.20;;;18.40;91.90;;;;;;5071363;28;20461;-77
2022/08/03 02:48:31;;;;;;;1.42;1.33;;;18.40;92.00;;;;;;5071226;28;20060;-78
2022/08/03 02:50:58;;;;;;;1.23;1.20;;;18.40;92.10;;;;;;5069913;28;20338;-79
2022/08/03 02:53:26;;;;;;;1.15;1.05;;;18.30;92.10;;;;;;5067519;28;20017;-79
2022/08/03 02:55:54;;;;;;;2.22;0.90;;;18.30;92.30;;;;;;5059168;28;20043;-80
2022/08/03 02:58:22;;;;;;;1.20;1.20;;;18.30;92.40;;;;;;5058002;28;20036;-80
2022/08/03 03:00:50;;;;;;;1.10;1.10;;;18.20;92.60;;;;;;5065147;28;20031;-80
2022/08/03 03:03:16;;;;;;;1.95;1.02;;;18.20;92.70;;;;;;5058221;28;20115;-80
2022/08/03 03:05:43;;;;;;;1.25;1.15;;;18.20;92.90;;;;;;5056180;28;20025;-80
2022/08/03 03:08:13;;;;;;;1.20;1.10;;;18.10;93.00;;;;;;5057609;28;20426;-79
2022/08/03 03:10:40;;;;;;;1.00;1.00;;;18.10;93.20;;;;;;5056294;28;20458;-80
2022/08/03 03:13:07;;;;;;;0.90;0.90;;;18.10;93.30;;;;;;5063036;28;20037;-79
2022/08/03 03:15:36;;;;;;;0.55;0.55;;;18.10;93.30;;;;;;5066195;28;20025;-79
2022/08/03 03:18:02;;;;;;;1.00;1.00;;;18.10;93.40;;;;;;5061022;28;20081;-80
2022/08/03 03:20:29;;;;;;;1.00;1.00;;;18.10;93.50;;;;;;5064545;28;20017;-80
2022/08/03 03:22:56;;;;;;;0.70;0.70;;;18.10;93.60;;;;;;5083148;28;20036;-78
2022/08/03 03:25:23;;;;;;;1.38;1.10;;;18.10;93.60;;;;;;5066636;28;20029;-79
2022/08/03 03:27:49;;;;;;;1.23;1.13;;;18.00;93.60;;;;;;5061864;28;20029;-80
2022/08/03 03:30:15;;;;;;;1.08;1.00;;;18.00;93.70;;;;;;5060420;28;20021;-79
2022/08/03 03:32:41;;;;;;;0.85;0.85;;;18.00;93.90;;;;;;5056617;28;20394;-79
2022/08/03 03:35:08;;;;;;;1.25;1.17;;;18.00;93.80;;;;;;5056417;28;20032;-80
2022/08/03 03:37:34;;;;;;;1.17;1.08;;;18.00;93.90;;;;;;5068270;28;20025;-78
2022/08/03 03:40:00;;;;;;;0.98;0.93;;;18.00;93.80;;;;;;5061631;28;20086;-80
2022/08/03 03:42:26;;;;;;;1.75;1.05;;;18.00;93.80;;;;;;5057745;28;20084;-80
2022/08/03 03:44:51;;;;;;;1.00;0.90;;;18.10;94.00;;;;;;5057202;28;20381;-80
2022/08/03 03:47:17;;;;;;;0.88;0.88;;;18.10;94.00;;;;;;5060544;28;20040;-79
2022/08/03 03:49:43;;;;;;;1.10;1.10;;;18.00;94.00;;;;;;5068143;28;20044;-79
2022/08/03 03:52:10;;;;;;;1.27;1.25;;;18.10;94.10;;;;;;5065352;28;20045;-80
2022/08/03 03:54:42;;;;;;;1.05;1.00;;;18.00;94.00;;;;;;5062131;28;20073;-82
2022/08/03 03:57:10;;;;;;;1.33;1.15;;;18.10;94.10;;;;;;5060264;28;20028;-80
2022/08/03 03:59:39;;;;;;;0.98;0.98;;;18.00;94.20;;;;;;5052233;28;20029;-82
2022/08/03 04:02:07;;;;;;;1.15;1.05;;;18.00;94.20;;;;;;5056114;28;20054;-82
2022/08/03 04:12:58;;;;;;;1.10;1.00;;;18.00;94.40;;;;;;5071108;28;20024;-80
2022/08/03 04:15:26;;;;;;;1.30;1.20;;;18.00;94.30;;;;;;5071877;28;20013;-80
2022/08/03 04:17:55;;;;;;;1.23;1.10;;;18.00;94.30;;;;;;5088877;28;20009;-80
2022/08/03 04:20:22;;;;;;;0.93;0.93;;;18.10;94.40;;;;;;5076287;28;20025;-78
2022/08/03 04:22:51;;;;;;;1.42;1.33;;;18.10;94.40;;;;;;5075797;28;20578;-79
2022/08/03 04:25:19;;;;;;;1.40;1.30;;;18.10;94.40;;;;;;5070236;28;20028;-79
2022/08/03 04:27:47;;;;;;;1.20;1.10;;;18.00;94.30;;;;;;5075879;28;20104;-79
2022/08/03 04:30:13;;;;;;;1.08;1.08;;;18.10;94.20;;;;;;5074455;28;20028;-76
2022/08/03 04:32:42;;;;;;;0.82;0.82;;;18.10;94.20;;;;;;5076549;28;20037;-76
2022/08/03 04:35:09;;;;;;;2.40;1.17;;;18.10;94.00;;;;;;5078458;28;20017;-78
2022/08/03 04:37:38;;;;;;;1.00;1.00;;;18.10;94.00;;;;;;5078223;28;20215;-80
2022/08/03 04:40:08;;;;;;;1.13;1.10;;;18.10;94.00;;;;;;5077511;28;20112;-76
2022/08/03 04:42:37;;;;;;;1.20;1.20;;;18.10;93.90;;;;;;5078478;28;20033;-78
2022/08/03 04:45:03;;;;;;;1.55;1.42;;;18.10;93.80;;;;;;5072949;28;20095;-78
2022/08/03 04:47:32;;;;;;;1.02;1.02;;;18.20;93.70;;;;;;5071478;28;20067;-79
2022/08/03 04:50:00;;;;;;;1.80;1.42;;;18.20;93.70;;;;;;5072684;28;20028;-78
2022/08/03 04:52:27;;;;;;;1.90;1.30;;;18.20;93.70;;;;;;5063949;28;20021;-80
2022/08/03 04:54:52;;;;;;;1.30;1.20;;;18.20;93.60;;;;;;5066546;28;20063;-81
2022/08/03 04:57:18;;;;;;;1.17;1.17;;;18.30;93.50;;;;;;5063763;28;20025;-81
2022/08/03 04:59:44;;;;;;;1.10;1.00;;;18.30;93.30;;;;;;5065352;28;20029;-81
2022/08/03 05:02:09;;;;;;;1.08;1.05;;;18.30;93.20;;;;;;5060262;28;20032;-81
2022/08/03 05:04:36;;;;;;;1.20;1.10;;;18.30;93.10;;;;;;5059621;28;20426;-79
2022/08/03 05:07:02;;;;;;;1.63;1.17;;;18.40;93.10;;;;;;5060065;28;20047;-79
2022/08/03 05:09:28;;;;;;;1.40;1.20;;;18.40;93.00;;;;;;5064108;28;20029;-80
2022/08/03 05:11:54;;;;;;;1.42;1.33;;;18.40;92.90;;;;;;5060118;28;20029;-81
2022/08/03 05:14:20;;;;;;;1.70;1.27;;;18.50;92.70;;;;;;5059391;28;20132;-79
2022/08/03 05:16:45;;;;;;;2.65;1.10;;;18.50;92.50;;;;;;5075420;28;20455;-79
2022/08/03 05:19:11;;;;;;;1.52;1.38;;;18.60;92.30;;;;;;5079416;28;20041;-81
2022/08/03 05:21:37;;;;;;;1.33;1.20;;;18.70;92.20;;;;;;5079025;28;20082;-82
2022/08/03 05:24:03;;;;;;;1.92;1.83;;;18.90;91.70;;;;;;5071592;28;20051;-82
2022/08/03 05:26:29;;;;;;;0.77;0.77;;;19.20;91.30;;;;;;5077395;28;20045;-81
2022/08/03 05:28:55;;;;;;;1.30;1.20;;;19.40;90.80;;;;;;5077440;28;20036;-81
2022/08/03 05:31:20;;;;;;;2.95;1.20;;;19.60;90.20;;;;;;5077264;28;20021;-80
2022/08/03 05:33:47;;;;;;;1.85;1.38;;;19.70;89.20;;;;;;5067911;28;20135;-81
2022/08/03 05:36:13;;;;;;;1.40;1.30;;;19.70;89.00;;;;;;5068667;28;20093;-81
2022/08/03 05:38:39;;;;;;;1.65;0.95;;;19.70;89.10;;;;;;5062395;28;20029;-81
2022/08/03 05:41:05;;;;;;;2.47;1.40;;;19.80;88.90;;;;;;5058318;28;20041;-81
2022/08/03 05:43:30;;;;;;;1.38;1.10;;;19.90;88.00;;;;;;5056817;28;20025;-80
2022/08/03 05:45:57;;;;;;;1.98;1.70;;;20.10;87.30;;;;;;5057398;28;20064;-82
2022/08/03 05:48:23;;;;;;;1.45;1.35;;;20.20;86.90;;;;;;5050005;28;20033;-80
2022/08/03 05:50:49;;;;;;;1.52;1.38;;;20.40;86.20;;;;;;5057952;28;20017;-82
2022/08/03 05:53:14;;;;;;;2.05;1.45;;;20.50;85.20;;;;;;5059133;28;20025;-80
2022/08/03 05:55:40;;;;;;;1.50;0.95;;;20.60;84.50;;;;;;5069222;28;20076;-80
2022/08/03 05:58:06;;;;;;;1.20;1.20;;;20.70;83.80;;;;;;5069762;28;20111;-80
2022/08/03 06:00:31;;;;;;;1.35;1.10;;;20.70;83.70;;;;;;5067871;28;20075;-80
2022/08/03 06:02:57;;;;;;;1.27;1.10;;;20.80;83.40;;;;;;5061168;28;20025;-81
2022/08/03 06:05:25;;;;;;;1.40;1.30;;;21.10;83.10;;;;;;5065298;28;20028;-79
2022/08/03 06:07:52;;;;;;;1.10;1.00;;;24.10;80.50;;;;;;5065070;28;20017;-80
2022/08/03 06:10:18;;;;;;;1.00;1.00;;;28.50;67.50;;;;;;5075499;28;20032;-82
2022/08/03 06:12:46;;;;;;;0.98;0.82;;;32.10;56.80;;;;;;5068144;28;20086;-79
2022/08/03 06:15:12;;;;;;;1.40;1.30;;;;;;;;;;5066403;28;20032;-79
2022/08/03 06:17:46;;;;;;;1.30;1.20;;;35.90;45.90;;;;;;5081157;28;20040;-80
2022/08/03 06:20:11;;;;;;;1.52;1.20;;;36.30;44.40;;;;;;5093555;28;20035;-79
2022/08/03 06:22:37;;;;;;;1.30;1.30;;;37.00;43.50;;;;;;5069112;28;20025;-77
2022/08/03 06:25:03;;;;;;;1.45;1.23;;;37.80;42.00;;;;;;5055915;28;20021;-82
2022/08/03 06:27:29;;;;;;;2.70;1.80;;;38.20;41.10;;;;;;5057167;28;20029;-82
2022/08/03 06:29:54;;;;;;;1.60;1.50;;;38.70;41.00;;;;;;5051672;28;20481;-81
2022/08/03 06:32:21;;;;;;;1.60;1.50;;;39.10;40.20;;;;;;5059711;28;20077;-80
2022/08/03 06:34:47;;;;;;;3.88;1.70;;;39.50;39.60;;;;;;5064857;28;20027;-81
2022/08/03 06:37:13;;;;;;;1.63;1.45;;;39.70;39.00;;;;;;5057932;28;20390;-82
2022/08/03 06:39:39;;;;;;;3.53;1.75;;;39.90;38.50;;;;;;5059851;28;20032;-81
2022/08/03 06:42:04;;;;;;;2.03;1.60;;;39.40;38.00;;;;;;5059435;28;20067;-81
2022/08/03 06:44:30;;;;;;;2.33;1.90;;;38.60;38.60;;;;;;5058771;28;20108;-81
2022/08/03 06:46:56;;;;;;;1.35;1.25;;;38.90;38.60;;;;;;5064562;28;20027;-81
2022/08/03 06:49:22;;;;;;;1.83;1.50;;;39.00;38.90;;;;;;5078821;28;20020;-82
2022/08/03 06:51:49;;;;;;;1.50;1.40;;;39.30;38.50;;;;;;5077270;28;20069;-83
2022/08/03 06:54:15;;;;;;;1.25;1.20;;;39.40;38.10;;;;;;5068070;28;20106;-81
2022/08/03 06:56:41;;;;;;;1.90;1.60;;;39.30;37.90;;;;;;5073618;28;20025;-80
2022/08/03 06:59:06;;;;;;;2.65;1.40;;;39.30;37.80;;;;;;5074506;28;20097;-77
2022/08/03 07:01:32;;;;;;;2.53;1.58;;;38.70;38.00;;;;;;5074772;28;20009;-80
2022/08/03 07:03:59;;;;;;;1.83;1.67;;;38.10;38.10;;;;;;5073469;28;20051;-78
2022/08/03 07:06:25;;;;;;;3.47;2.00;;;37.30;38.70;;;;;;5073477;28;20021;-81
2022/08/03 07:08:50;;;;;;;1.40;1.30;;;36.80;39.50;;;;;;5083343;28;20036;-79
2022/08/03 07:11:22;;;;;;;1.30;1.30;;;36.20;39.80;;;;;;5074080;28;20107;-80
2022/08/03 07:13:48;;;;;;;3.22;1.70;;;34.90;40.70;;;;;;5070474;28;20025;-80
2022/08/03 07:16:33;;;;;;;2.35;1.48;;;32.00;43.30;;;;;;5062340;28;20036;-81
2022/08/03 07:18:59;;;;;;;1.25;1.20;;;;;;;;;;5059705;28;20523;-82
2022/08/03 07:21:31;;;;;;;1.65;1.42;;;27.50;50.70;;;;;;5056653;28;20060;-82
2022/08/03 07:23:59;;;;;;;1.40;1.15;;;26.30;54.20;;;;;;5061741;28;20112;-81
2022/08/03 07:26:38;;;;;;;1.48;1.20;;;25.50;56.20;;;;;;5059210;28;20044;-81
2022/08/03 07:29:05;;;;;;;1.55;1.20;;;25.00;58.20;;;;;;5056650;28;20428;-82
2022/08/03 07:31:31;;;;;;;2.80;1.70;;;24.60;59.80;;;;;;5073539;28;20021;-83
2022/08/03 07:33:56;;;;;;;4.15;1.55;;;24.40;61.40;;;;;;5057232;28;20036;-82
2022/08/03 07:36:23;;;;;;;1.65;1.40;;;24.30;61.40;;;;;;5056550;28;20017;-81
2022/08/03 07:38:49;;;;;;;3.13;1.40;;;24.20;61.90;;;;;;5058567;28;20724;-80
2022/08/03 07:41:15;;;;;;;1.60;1.40;;;24.20;62.40;;;;;;5057109;28;20048;-81
2022/08/03 07:43:41;;;;;;;1.73;1.63;;;24.10;62.70;;;;;;5062580;28;20628;-81
2022/08/03 07:46:07;;;;;;;8.75;1.40;;;24.20;62.90;;;;;;5066789;28;20040;-81
2022/08/03 07:48:32;;;;;;;2.63;1.60;;;24.20;62.80;;;;;;5061037;28;20037;-81
2022/08/03 07:50:58;;;;;;;2.05;1.30;;;24.30;62.40;;;;;;5076778;28;20021;-81
2022/08/03 07:53:23;;;;;;;3.65;1.42;;;24.30;62.20;;;;;;5061769;28;20052;-81
2022/08/03 07:55:49;;;;;;;1.98;1.30;;;24.40;62.40;;;;;;5063807;28;20021;-82
2022/08/03 07:58:16;;;;;;;2.17;1.60;;;24.40;62.50;;;;;;5059730;28;20094;-83
2022/08/03 08:00:43;;;;;;;1.35;1.25;;;24.50;61.80;;;;;;5074206;28;20017;-81
2022/08/03 08:03:09;;;;;;;2.22;1.42;;;24.60;61.40;;;;;;5074908;28;20064;-80
2022/08/03 08:05:36;;;;;;;2.50;1.20;;;24.80;61.50;;;;;;5064421;28;20053;-81
2022/08/03 08:08:02;;;;;;;3.75;1.38;;;24.90;61.40;;;;;;5066637;28;20021;-80
2022/08/03 08:10:28;;;;;;;3.70;1.33;;;24.90;60.90;;;;;;5075283;28;20089;-79
2022/08/03 08:12:54;;;;;;;3.58;1.35;;;25.10;60.40;;;;;;5073857;28;20025;-81
2022/08/03 08:15:20;;;;;;;1.58;1.17;;;25.20;59.80;;;;;;5082759;28;20112;-81
2022/08/03 08:17:47;;;;;;;2.45;1.30;;;25.30;59.80;;;;;;5064293;28;20056;-79
2022/08/03 08:20:19;;;;;;;1.08;0.98;;;25.40;59.70;;;;;;5063088;28;20025;-82
2022/08/03 08:22:44;;;;;;;1.35;1.02;;;25.50;59.30;;;;;;5060543;28;20097;-83
2022/08/03 08:25:10;;;;;;;1.30;1.20;;;25.60;59.30;;;;;;5063792;28;20112;-80
2022/08/03 08:27:48;;;;;;;3.30;1.15;;;25.80;59.20;;;;;;5061570;28;20029;-81
2022/08/03 08:30:16;;;;;;;1.67;1.10;;;25.90;58.90;;;;;;5060387;28;20464;-82
2022/08/03 08:32:42;;;;;;;1.23;1.00;;;26.10;58.80;;;;;;5061436;28;20031;-82
2022/08/03 08:35:08;;;;;;;1.20;1.17;;;26.20;58.50;;;;;;5067585;28;20144;-80
2022/08/03 08:37:35;;;;;;;0.88;0.88;;;26.40;58.20;;;;;;5078134;28;20013;-79
2022/08/03 08:40:01;;;;;;;1.20;1.10;;;26.50;57.80;;;;;;5076377;28;20037;-80
2022/08/03 08:42:26;;;;;;;3.88;1.10;;;26.70;56.50;;;;;;5076655;28;20091;-80
2022/08/03 08:44:53;;;;;;;1.05;1.00;;;26.70;56.00;;;;;;5074367;28;20033;-81
2022/08/03 08:47:23;;;;;;;8.93;0.98;;;26.80;56.00;;;;;;5077870;28;20032;-79
2022/08/03 08:49:53;;;;;;;1.02;0.85;;;27.00;55.60;;;;;;5077163;28;20044;-78
2022/08/03 08:52:29;;;;;;;1.50;1.23;;;27.00;54.10;;;;;;5076469;28;20025;-79
2022/08/03 08:54:58;;;;;;;2.05;1.05;;;27.10;53.70;;;;;;5076712;28;20084;-77
2022/08/03 08:57:28;;;;;;;2.03;1.10;;;27.10;54.20;;;;;;5066069;28;20055;-81
2022/08/03 08:59:55;;;;;;;2.90;1.13;;;27.30;54.10;;;;;;5061911;28;20024;-80
2022/08/03 09:02:25;;;;;;;3.15;1.20;;;27.40;53.80;;;;;;5061283;28;20025;-79
2022/08/03 09:04:52;;;;;;;2.38;1.40;;;27.50;53.10;;;;;;5068126;28;20021;-80
2022/08/03 09:07:17;;;;;;;1.08;1.00;;;27.70;52.00;;;;;;5074161;28;20035;-80
2022/08/03 09:09:43;;;;;;;1.67;1.05;;;27.70;51.10;;;;;;5061385;28;20033;-81
2022/08/03 09:12:09;;;;;;;1.00;1.00;;;27.70;51.10;;;;;;5061256;28;20033;-81
2022/08/03 09:14:34;;;;;;;1.40;0.82;;;27.80;52.00;;;;;;5051605;28;20024;-81
2022/08/03 09:17:02;;;;;;;1.10;1.00;;;27.90;50.60;;;;;;5063501;28;20075;-81
2022/08/03 09:19:30;;;;;;;1.35;1.27;;;27.90;50.50;;;;;;5061198;28;20036;-81
2022/08/03 09:22:11;;;;;;;1.25;1.10;;;28.00;50.60;;;;;;5059551;28;20044;-81
2022/08/03 09:24:38;;;;;;;2.10;1.00;;;28.10;50.30;;;;;;5060269;28;20029;-81
2022/08/03 09:27:15;;;;;;;1.08;0.98;;;28.20;50.00;;;;;;5062794;28;20036;-80
2022/08/03 09:29:46;;;;;;;1.33;0.80;;;28.40;49.60;;;;;;5065047;28;20066;-80
2022/08/03 09:32:12;;;;;;;2.33;0.80;;;28.60;49.20;;;;;;5067041;28;20028;-81
2022/08/03 09:34:38;;;;;;;0.93;0.93;;;28.80;47.30;;;;;;5067732;28;20024;-81
2022/08/03 09:37:13;;;;;;;1.15;1.05;;;29.00;47.20;;;;;;5065191;28;20033;-82
2022/08/03 09:39:39;;;;;;;1.02;0.80;;;29.10;47.60;;;;;;5061373;28;20369;-81
2022/08/03 09:42:04;;;;;;;1.23;0.80;;;29.10;47.30;;;;;;5060215;28;20041;-80
2022/08/03 09:44:35;;;;;;;1.45;1.30;;;29.20;47.50;;;;;;5059781;28;20120;-80
2022/08/03 09:47:01;;;;;;;1.65;0.90;;;29.30;47.10;;;;;;5060646;28;20025;-81
2022/08/03 09:49:27;;;;;;;2.72;1.08;;;29.50;46.50;;;;;;5059863;28;20033;-80
2022/08/03 09:51:53;;;;;;;1.65;1.30;;;29.60;44.80;;;;;;5060040;28;20032;-80
2022/08/03 09:54:29;;;;;;;1.88;1.20;;;29.70;45.40;;;;;;5059776;28;20040;-81
2022/08/03 09:56:56;;;;;;;1.90;1.20;;;29.90;45.40;;;;;;5052452;28;20036;-81
2022/08/03 09:59:24;;;;;;;1.17;1.10;;;30.00;44.40;;;;;;5059096;28;20053;-80
2022/08/03 10:01:51;;;;;;;1.08;0.98;;;29.90;45.50;;;;;;5058735;28;20021;-81
2022/08/03 10:04:17;;;;;;;1.02;1.02;;;29.90;47.10;;;;;;5059504;28;20043;-81
2022/08/03 10:06:44;;;;;;;1.33;1.17;;;29.90;46.60;;;;;;5059932;28;20104;-81
2022/08/03 10:09:14;;;;;;;1.15;1.15;;;30.00;47.30;;;;;;5059537;28;20021;-82
2022/08/03 10:11:40;;;;;;;1.10;1.00;;;30.00;46.10;;;;;;5059947;28;20052;-81
2022/08/03 10:14:31;;;;;;;1.75;1.15;;;30.10;45.10;;;;;;5059406;28;20421;-81
2022/08/03 10:17:00;;;;;;;0.98;0.98;;;30.20;45.60;;;;;;5053438;28;20182;-82
2022/08/03 10:19:26;;;;;;;1.27;1.00;;;30.20;45.00;;;;;;5059452;28;20033;-82
2022/08/03 10:22:00;;;;;;;1.63;1.30;;;30.40;45.20;;;;;;5058856;28;20094;-80
2022/08/03 10:24:29;;;;;;;2.28;1.20;;;30.50;45.70;;;;;;5056613;28;20028;-80
2022/08/03 10:27:02;;;;;;;0.80;0.80;;;30.60;44.90;;;;;;5058184;28;20033;-81
2022/08/03 10:30:17;;;;;;;0.90;0.90;;;30.50;43.40;;;;;;5059270;28;20025;-81
2022/08/03 10:33:02;;;;;;;1.00;0.90;;;30.60;45.10;;;;;;5057619;28;20033;-82
2022/08/03 10:35:40;;;;;;;1.40;1.30;;;30.70;42.00;;;;;;5006775;28;20037;-81
2022/08/03 10:38:19;;;;;;;1.05;1.02;;;30.70;41.10;;;;;;5044190;28;20108;-82
2022/08/03 10:40:45;;;;;;;1.15;1.08;;;30.60;41.30;;;;;;5059071;28;20489;-82
2022/08/03 10:43:18;;;;;;;0.90;0.90;;;30.40;42.30;;;;;;5059705;28;20081;-84
2022/08/03 10:45:45;;;;;;;1.73;1.63;;;30.50;44.20;;;;;;5058763;28;20045;-82
2022/08/03 10:48:12;;;;;;;1.30;1.20;;;30.70;44.10;;;;;;5053525;28;20028;-82
2022/08/03 10:50:39;;;;;;;1.00;1.00;;;30.90;42.90;;;;;;5038412;28;20029;-82
2022/08/03 10:53:06;;;;;;;1.67;0.70;;;30.90;43.10;;;;;;5040521;28;20447;-80
2022/08/03 10:58:37;;;;;;;1.25;1.17;;;31.20;41.50;;;;;;5041153;28;20088;-79
2022/08/03 11:01:06;;;;;;;1.05;1.00;;;31.30;43.30;;;;;;5039268;28;20029;-80
2022/08/03 11:03:32;;;;;;;1.35;1.00;;;31.40;42.60;;;;;;5039516;28;20390;-81
2022/08/03 11:06:27;;;;;;;1.45;1.27;;;31.50;42.50;;;;;;5039789;28;20516;-81
2022/08/03 11:09:08;;;;;;;1.95;1.05;;;31.50;42.60;;;;;;5021810;28;20045;-82
2022/08/03 11:11:35;;;;;;;1.00;1.00;;;31.50;41.30;;;;;;5040988;28;20021;-82
2022/08/03 11:14:07;;;;;;;1.42;1.25;;;31.40;41.80;;;;;;5057154;28;20086;-81
2022/08/03 11:16:35;;;;;;;1.23;1.20;;;31.60;42.20;;;;;;5058070;28;20052;-80
2022/08/03 11:19:05;;;;;;;0.90;0.90;;;31.70;43.10;;;;;;5043080;28;20018;-80
2022/08/03 11:24:45;;;;;;;1.60;1.50;;;31.50;40.10;;;;;;5042138;28;20037;-80
2022/08/03 11:27:21;;;;;;;1.38;1.30;;;31.70;41.40;;;;;;5038507;28;20021;-83
2022/08/03 11:30:09;;;;;;;0.90;0.90;;;31.90;41.60;;;;;;5038951;28;20118;-82
2022/08/03 11:32:39;;;;;;;1.42;1.30;;;32.10;42.00;;;;;;5058179;28;20049;-81
2022/08/03 11:35:23;;;;;;;1.00;1.00;;;32.20;41.50;;;;;;5051595;28;20060;-81
2022/08/03 11:37:55;;;;;;;1.30;1.20;;;32.40;41.50;;;;;;5046194;28;20060;-82
2022/08/03 11:40:34;;;;;;;;;;;32.50;40.50;;;;;;5049067;28;20029;-80
2022/08/03 11:43:06;;;;;;;0.90;0.90;;;32.60;40.90;;;;;;5052049;28;19919;-80
2022/08/03 11:45:56;;;;;;;0.80;0.80;;;32.50;39.60;;;;;;5065675;28;20101;-82
2022/08/03 11:48:27;;;;;;;1.30;1.08;;;32.50;39.00;;;;;;5048901;28;20021;-79
2022/08/03 11:50:54;;;;;;;1.38;1.00;;;32.50;37.80;;;;;;5033733;28;20065;-80
2022/08/03 11:53:20;;;;;;;2.45;1.10;;;32.30;37.40;;;;;;5069567;28;20033;-82
2022/08/03 11:55:49;;;;;;;1.58;1.02;;;32.30;37.70;;;;;;5036649;28;20037;-80
2022/08/03 11:58:20;;;;;;;1.00;1.00;;;32.40;38.70;;;;;;5053785;28;20061;-81
2022/08/03 12:01:24;;;;;;;1.23;1.23;;;32.30;37.40;;;;;;5050363;28;20106;-83
2022/08/03 12:03:51;;;;;;;1.20;1.13;;;32.30;38.40;;;;;;5024078;28;20064;-82
2022/08/03 12:06:18;;;;;;;2.72;0.95;;;32.40;39.30;;;;;;5052204;28;20039;-82
2022/08/03 12:08:44;;;;;;;1.10;0.95;;;32.40;37.00;;;;;;5054026;28;20026;-81
2022/08/03 12:11:31;;;;;;;0.90;0.90;;;32.30;36.90;;;;;;5042022;28;20544;-84
2022/08/03 12:13:58;;;;;;;1.10;1.10;;;32.40;37.70;;;;;;5037952;28;20037;-83
2022/08/03 12:16:24;;;;;;;1.00;1.00;;;32.50;37.50;;;;;;5037922;28;20025;-82
2022/08/03 12:19:05;;;;;;;0.88;0.88;;;32.50;38.80;;;;;;5053926;28;20029;-85
2022/08/03 12:21:31;;;;;;;1.10;1.10;;;32.60;39.50;;;;;;5036635;28;20067;-83
2022/08/03 12:23:59;;;;;;;1.33;1.23;;;32.70;36.80;;;;;;5036507;28;20052;-84
2022/08/03 12:26:25;;;;;;;1.10;1.00;;;32.70;36.20;;;;;;5036722;28;20116;-83
2022/08/03 12:28:51;;;;;;;0.80;0.80;;;32.60;36.50;;;;;;5039363;28;20391;-83
2022/08/03 12:31:17;;;;;;;1.30;1.20;;;32.60;35.80;;;;;;5042031;28;20044;-83
2022/08/03 12:34:05;;;;;;;0.80;0.80;;;32.70;37.50;;;;;;5057717;28;20459;-82
2022/08/03 12:36:32;;;;;;;1.00;1.00;;;32.80;38.20;;;;;;5043021;28;20026;-84
2022/08/03 12:39:07;;;;;;;0.90;0.90;;;33.00;38.00;;;;;;5044064;28;20037;-82
2022/08/03 12:41:37;;;;;;;1.00;1.00;;;33.20;37.30;;;;;;5043992;28;20041;-84
2022/08/03 12:44:05;;;;;;;1.27;1.17;;;33.50;37.70;;;;;;5057562;28;20033;-84
2022/08/03 12:46:38;;;;;;;1.13;1.13;;;33.60;35.40;;;;;;5057982;28;19998;-83
2022/08/03 12:49:12;;;;;;;1.50;1.40;;;33.30;38.50;;;;;;5056612;28;20021;-81
2022/08/03 12:51:57;;;;;;;1.40;1.30;;;32.80;39.00;;;;;;5048418;28;20379;-79
2022/08/03 12:54:30;;;;;;;1.10;0.90;;;32.30;36.80;;;;;;5048856;28;20025;-82
2022/08/03 12:57:02;;;;;;;1.40;1.05;;;32.30;37.70;;;;;;5048771;28;20033;-82
2022/08/03 12:59:33;;;;;;;1.27;1.13;;;32.50;37.80;;;;;;5055311;28;20053;-80
2022/08/03 13:01:59;;;;;;;1.15;1.15;;;32.80;37.60;;;;;;5055502;28;20033;-81
2022/08/03 13:04:49;;;;;;;1.33;1.23;;;32.90;38.50;;;;;;5040876;28;20056;-81
2022/08/03 13:07:17;;;;;;;1.40;1.30;;;33.10;36.50;;;;;;5040962;28;20048;-80
2022/08/03 13:10:01;;;;;;;1.95;1.10;;;33.20;36.90;;;;;;5039474;28;20469;-83
2022/08/03 13:12:30;;;;;;;0.93;0.93;;;33.30;36.70;;;;;;5039221;28;20029;-82